sensor_id;sensor_type;location;lat;lon;timestamp;pressure;altitude;pressure_sealevel;temperature;humidity
24486;BME280;13449;49.374;8.584;2023-03-25T00:00:10;99874.63;;;9.68;100.00
24486;BME280;13449;49.374;8.584;2023-03-25T00:02:49;99878.44;;;9.65;100.00
24486;BME280;13449;49.374;8.584;2023-03-25T00:05:18;99884.81;;;9.56;100.00
24486;BME280;13449;49.374;8.584;2023-03-25T00:07:48;99880.81;;;9.45;100.00
24486;BME280;13449;49.374;8.584;2023-03-25T00:10:15;99879.84;;;9.46;100.00
24486;BME280;13449;49.374;8.584;2023-03-25T00:12:46;99878.25;;;9.52;100.00
24486;BME280;13449;49.374;8.584;2023-03-25T00:15:16;99883.53;;;9.37;100.00
24486;BME280;13449;49.374;8.584;2023-03-25T00:17:43;99878.66;;;9.34;100.00
24486;BME280;13449;49.374;8.584;2023-03-25T00:20:10;99881.72;;;9.23;100.00
24486;BME280;13449;49.374;8.584;2023-03-25T00:22:38;99883.19;;;9.10;100.00
24486;BME280;13449;49.374;8.584;2023-03-25T00:25:11;99882.53;;;9.08;100.00
24486;BME280;13449;49.374;8.584;2023-03-25T00:27:42;99879.34;;;9.13;100.00
24486;BME280;13449;49.374;8.584;2023-03-25T00:30:12;99883.53;;;9.07;100.00
24486;BME280;13449;49.374;8.584;2023-03-25T00:32:39;99889.78;;;9.06;100.00
24486;BME280;13449;49.374;8.584;2023-03-25T00:35:05;99898.22;;;9.02;100.00
24486;BME280;13449;49.374;8.584;2023-03-25T00:37:33;99889.31;;;9.03;100.00
24486;BME280;13449;49.374;8.584;2023-03-25T00:40:00;99893.31;;;8.99;100.00
24486;BME280;13449;49.374;8.584;2023-03-25T00:42:26;99895.88;;;9.07;100.00
24486;BME280;13449;49.374;8.584;2023-03-25T00:44:53;99889.31;;;9.03;100.00
24486;BME280;13449;49.374;8.584;2023-03-25T00:47:19;99886.94;;;8.93;100.00
24486;BME280;13449;49.374;8.584;2023-03-25T00:49:48;99890.47;;;8.85;100.00
24486;BME280;13449;49.374;8.584;2023-03-25T00:52:15;99886.50;;;8.89;100.00
24486;BME280;13449;49.374;8.584;2023-03-25T00:54:41;99891.13;;;8.87;100.00
24486;BME280;13449;49.374;8.584;2023-03-25T00:57:08;99891.44;;;9.07;100.00
24486;BME280;13449;49.374;8.584;2023-03-25T00:59:35;99890.31;;;9.02;100.00
24486;BME280;13449;49.374;8.584;2023-03-25T01:02:04;99888.25;;;8.97;100.00
24486;BME280;13449;49.374;8.584;2023-03-25T01:04:35;99875.91;;;9.12;100.00
24486;BME280;13449;49.374;8.584;2023-03-25T01:07:08;99876.19;;;9.03;100.00
24486;BME280;13449;49.374;8.584;2023-03-25T01:09:35;99863.97;;;9.10;100.00
24486;BME280;13449;49.374;8.584;2023-03-25T01:12:06;99868.56;;;8.93;100.00
24486;BME280;13449;49.374;8.584;2023-03-25T01:14:35;99868.56;;;8.93;100.00
24486;BME280;13449;49.374;8.584;2023-03-25T01:17:05;99863.66;;;8.90;100.00
24486;BME280;13449;49.374;8.584;2023-03-25T01:19:31;99861.13;;;8.97;100.00
24486;BME280;13449;49.374;8.584;2023-03-25T01:21:58;99859.78;;;8.86;100.00
24486;BME280;13449;49.374;8.584;2023-03-25T01:24:26;99856.78;;;8.89;100.00
24486;BME280;13449;49.374;8.584;2023-03-25T01:26:53;99852.00;;;8.93;100.00
24486;BME280;13449;49.374;8.584;2023-03-25T01:29:20;99868.19;;;8.96;100.00
24486;BME280;13449;49.374;8.584;2023-03-25T01:31:47;99865.22;;;8.99;100.00
24486;BME280;13449;49.374;8.584;2023-03-25T01:34:14;99862.97;;;9.11;100.00
24486;BME280;13449;49.374;8.584;2023-03-25T01:36:41;99864.50;;;9.05;100.00
24486;BME280;13449;49.374;8.584;2023-03-25T01:39:13;99854.38;;;9.17;100.00
24486;BME280;13449;49.374;8.584;2023-03-25T01:41:45;99850.09;;;9.16;100.00
24486;BME280;13449;49.374;8.584;2023-03-25T01:46:47;99847.66;;;9.15;100.00
24486;BME280;13449;49.374;8.584;2023-03-25T01:49:23;99849.28;;;9.16;100.00
24486;BME280;13449;49.374;8.584;2023-03-25T01:51:58;99849.28;;;9.16;100.00
24486;BME280;13449;49.374;8.584;2023-03-25T01:54:27;99858.88;;;9.08;100.00
24486;BME280;13449;49.374;8.584;2023-03-25T01:56:54;99847.38;;;8.95;100.00
24486;BME280;13449;49.374;8.584;2023-03-25T01:59:24;99873.44;;;8.81;100.00
24486;BME280;13449;49.374;8.584;2023-03-25T02:01:54;99892.00;;;8.80;100.00
24486;BME280;13449;49.374;8.584;2023-03-25T02:04:32;99887.91;;;8.39;100.00
24486;BME280;13449;49.374;8.584;2023-03-25T02:07:06;99887.56;;;8.34;100.00
24486;BME280;13449;49.374;8.584;2023-03-25T02:09:36;99862.38;;;8.25;100.00
24486;BME280;13449;49.374;8.584;2023-03-25T02:12:03;99847.53;;;8.17;100.00
24486;BME280;13449;49.374;8.584;2023-03-25T02:14:34;99863.34;;;8.09;100.00
24486;BME280;13449;49.374;8.584;2023-03-25T02:34:15;99861.06;;;7.75;100.00
24486;BME280;13449;49.374;8.584;2023-03-25T02:42:37;99883.75;;;7.60;100.00
24486;BME280;13449;49.374;8.584;2023-03-25T02:45:09;99892.41;;;7.68;100.00
24486;BME280;13449;49.374;8.584;2023-03-25T02:47:52;99890.56;;;7.77;100.00
24486;BME280;13449;49.374;8.584;2023-03-25T02:50:25;99886.47;;;7.75;100.00
24486;BME280;13449;49.374;8.584;2023-03-25T02:52:54;99889.94;;;7.67;100.00
24486;BME280;13449;49.374;8.584;2023-03-25T02:55:25;99891.88;;;7.73;100.00
24486;BME280;13449;49.374;8.584;2023-03-25T02:57:56;99891.84;;;7.81;100.00
24486;BME280;13449;49.374;8.584;2023-03-25T03:00:27;99888.66;;;7.94;100.00
24486;BME280;13449;49.374;8.584;2023-03-25T03:02:57;99897.91;;;7.82;100.00
24486;BME280;13449;49.374;8.584;2023-03-25T03:05:43;99898.91;;;7.81;100.00
24486;BME280;13449;49.374;8.584;2023-03-25T03:11:39;99900.34;;;8.37;100.00
24486;BME280;13449;49.374;8.584;2023-03-25T03:17:19;99897.44;;;8.32;100.00
24486;BME280;13449;49.374;8.584;2023-03-25T03:22:34;99878.53;;;8.45;100.00
24486;BME280;13449;49.374;8.584;2023-03-25T03:30:43;99892.53;;;8.06;100.00
24486;BME280;13449;49.374;8.584;2023-03-25T03:33:24;99892.78;;;8.19;100.00
24486;BME280;13449;49.374;8.584;2023-03-25T03:35:58;99901.06;;;8.31;100.00
24486;BME280;13449;49.374;8.584;2023-03-25T03:38:32;99892.63;;;8.44;100.00
24486;BME280;13449;49.374;8.584;2023-03-25T03:41:04;99892.88;;;8.03;100.00
24486;BME280;13449;49.374;8.584;2023-03-25T03:43:38;99894.81;;;8.09;100.00
24486;BME280;13449;49.374;8.584;2023-03-25T03:46:13;99884.66;;;8.06;100.00
24486;BME280;13449;49.374;8.584;2023-03-25T03:48:44;99885.81;;;8.04;100.00
24486;BME280;13449;49.374;8.584;2023-03-25T03:51:20;99888.59;;;8.02;100.00
24486;BME280;13449;49.374;8.584;2023-03-25T03:54:00;99882.28;;;8.19;100.00
24486;BME280;13449;49.374;8.584;2023-03-25T03:56:40;99883.88;;;8.29;100.00
24486;BME280;13449;49.374;8.584;2023-03-25T03:59:23;99879.78;;;8.26;100.00
24486;BME280;13449;49.374;8.584;2023-03-25T04:01:58;99888.50;;;8.18;100.00
24486;BME280;13449;49.374;8.584;2023-03-25T04:04:25;99884.41;;;7.93;100.00
24486;BME280;13449;49.374;8.584;2023-03-25T04:12:06;99883.25;;;8.18;100.00
24486;BME280;13449;49.374;8.584;2023-03-25T04:14:38;99882.03;;;8.06;100.00
24486;BME280;13449;49.374;8.584;2023-03-25T04:17:05;99878.53;;;7.91;100.00
24486;BME280;13449;49.374;8.584;2023-03-25T04:19:32;99872.06;;;8.02;100.00
24486;BME280;13449;49.374;8.584;2023-03-25T04:22:04;99886.31;;;7.99;100.00
24486;BME280;13449;49.374;8.584;2023-03-25T04:24:32;99890.25;;;8.03;100.00
24486;BME280;13449;49.374;8.584;2023-03-25T04:27:02;99888.72;;;8.09;100.00
24486;BME280;13449;49.374;8.584;2023-03-25T04:29:30;99884.81;;;8.05;100.00
24486;BME280;13449;49.374;8.584;2023-03-25T04:32:00;99881.97;;;8.14;100.00
24486;BME280;13449;49.374;8.584;2023-03-25T04:34:27;99889.50;;;8.17;100.00
24486;BME280;13449;49.374;8.584;2023-03-25T04:36:54;99890.63;;;8.23;100.00
24486;BME280;13449;49.374;8.584;2023-03-25T04:39:23;99895.09;;;8.14;100.00
24486;BME280;13449;49.374;8.584;2023-03-25T04:41:51;99896.91;;;8.14;100.00
24486;BME280;13449;49.374;8.584;2023-03-25T04:44:29;99901.94;;;8.24;100.00
24486;BME280;13449;49.374;8.584;2023-03-25T04:47:00;99898.06;;;8.11;100.00
24486;BME280;13449;49.374;8.584;2023-03-25T04:49:30;99892.97;;;8.41;100.00
24486;BME280;13449;49.374;8.584;2023-03-25T04:51:57;99887.31;;;8.29;100.00
24486;BME280;13449;49.374;8.584;2023-03-25T04:54:24;99888.00;;;8.23;100.00
24486;BME280;13449;49.374;8.584;2023-03-25T04:56:51;99882.97;;;8.36;100.00
24486;BME280;13449;49.374;8.584;2023-03-25T04:59:19;99878.09;;;8.33;100.00
24486;BME280;13449;49.374;8.584;2023-03-25T05:01:46;99877.41;;;8.39;100.00
24486;BME280;13449;49.374;8.584;2023-03-25T05:04:15;99878.00;;;8.50;100.00
24486;BME280;13449;49.374;8.584;2023-03-25T05:06:45;99871.28;;;8.47;100.00
24486;BME280;13449;49.374;8.584;2023-03-25T05:09:16;99890.00;;;8.44;100.00
24486;BME280;13449;49.374;8.584;2023-03-25T05:11:48;99885.50;;;8.30;100.00
24486;BME280;13449;49.374;8.584;2023-03-25T05:14:17;99886.09;;;8.40;100.00
24486;BME280;13449;49.374;8.584;2023-03-25T05:16:45;99880.84;;;8.40;100.00
24486;BME280;13449;49.374;8.584;2023-03-25T05:19:12;99884.50;;;8.54;100.00
24486;BME280;13449;49.374;8.584;2023-03-25T05:21:40;99889.03;;;8.45;100.00
24486;BME280;13449;49.374;8.584;2023-03-25T05:24:09;99894.28;;;8.45;100.00
24486;BME280;13449;49.374;8.584;2023-03-25T05:26:37;99907.78;;;8.57;100.00
24486;BME280;13449;49.374;8.584;2023-03-25T05:29:10;99912.69;;;8.60;100.00
24486;BME280;13449;49.374;8.584;2023-03-25T05:31:40;99919.06;;;8.65;100.00
24486;BME280;13449;49.374;8.584;2023-03-25T05:34:07;99929.69;;;8.49;100.00
24486;BME280;13449;49.374;8.584;2023-03-25T05:36:35;99940.91;;;8.58;100.00
24486;BME280;13449;49.374;8.584;2023-03-25T05:39:02;99934.81;;;8.65;100.00
24486;BME280;13449;49.374;8.584;2023-03-25T05:41:33;99939.59;;;8.62;100.00
24486;BME280;13449;49.374;8.584;2023-03-25T05:44:08;99941.06;;;8.64;100.00
24486;BME280;13449;49.374;8.584;2023-03-25T05:46:35;99941.16;;;8.71;100.00
24486;BME280;13449;49.374;8.584;2023-03-25T05:49:01;99946.66;;;8.61;100.00
24486;BME280;13449;49.374;8.584;2023-03-25T05:51:29;99950.22;;;8.46;100.00
24486;BME280;13449;49.374;8.584;2023-03-25T05:54:04;99953.88;;;8.59;100.00
24486;BME280;13449;49.374;8.584;2023-03-25T05:56:36;99956.38;;;8.76;100.00
24486;BME280;13449;49.374;8.584;2023-03-25T05:59:03;99966.94;;;8.68;100.00
24486;BME280;13449;49.374;8.584;2023-03-25T06:01:30;99962.28;;;8.78;100.00
24486;BME280;13449;49.374;8.584;2023-03-25T06:04:00;99960.44;;;9.01;100.00
24486;BME280;13449;49.374;8.584;2023-03-25T06:06:29;99969.84;;;8.96;100.00
24486;BME280;13449;49.374;8.584;2023-03-25T06:08:57;99973.19;;;8.43;100.00
24486;BME280;13449;49.374;8.584;2023-03-25T06:11:27;99972.56;;;8.64;100.00
24486;BME280;13449;49.374;8.584;2023-03-25T06:13:55;99976.47;;;8.46;100.00
24486;BME280;13449;49.374;8.584;2023-03-25T06:16:23;99973.72;;;8.62;100.00
24486;BME280;13449;49.374;8.584;2023-03-25T06:18:57;99976.00;;;8.65;100.00
24486;BME280;13449;49.374;8.584;2023-03-25T06:21:31;99969.88;;;8.73;100.00
24486;BME280;13449;49.374;8.584;2023-03-25T06:23:58;99975.59;;;8.76;100.00
24486;BME280;13449;49.374;8.584;2023-03-25T06:26:26;99975.13;;;8.73;100.00
24486;BME280;13449;49.374;8.584;2023-03-25T06:28:53;99971.38;;;8.90;100.00
24486;BME280;13449;49.374;8.584;2023-03-25T06:31:24;99988.94;;;8.89;100.00
24486;BME280;13449;49.374;8.584;2023-03-25T06:33:59;99982.59;;;9.22;100.00
24486;BME280;13449;49.374;8.584;2023-03-25T06:36:26;99975.41;;;9.16;100.00
24486;BME280;13449;49.374;8.584;2023-03-25T06:38:55;99985.47;;;9.12;100.00
24486;BME280;13449;49.374;8.584;2023-03-25T06:41:23;99979.69;;;9.17;100.00
24486;BME280;13449;49.374;8.584;2023-03-25T06:43:51;99978.84;;;9.16;100.00
24486;BME280;13449;49.374;8.584;2023-03-25T06:46:17;99986.22;;;9.21;100.00
24486;BME280;13449;49.374;8.584;2023-03-25T06:48:44;99981.53;;;9.31;100.00
24486;BME280;13449;49.374;8.584;2023-03-25T06:51:10;99981.25;;;9.41;100.00
24486;BME280;13449;49.374;8.584;2023-03-25T06:53:36;99985.72;;;9.55;100.00
24486;BME280;13449;49.374;8.584;2023-03-25T06:56:03;99973.38;;;9.70;100.00
24486;BME280;13449;49.374;8.584;2023-03-25T06:58:32;99968.78;;;9.72;100.00
24486;BME280;13449;49.374;8.584;2023-03-25T07:01:02;99970.09;;;9.68;100.00
24486;BME280;13449;49.374;8.584;2023-03-25T07:03:34;99966.31;;;9.71;100.00
24486;BME280;13449;49.374;8.584;2023-03-25T07:06:04;99960.19;;;10.00;100.00
24486;BME280;13449;49.374;8.584;2023-03-25T07:08:31;99957.25;;;10.24;100.00
24486;BME280;13449;49.374;8.584;2023-03-25T07:11:05;99959.72;;;10.26;100.00
24486;BME280;13449;49.374;8.584;2023-03-25T07:13:33;99959.63;;;10.34;100.00
24486;BME280;13449;49.374;8.584;2023-03-25T07:16:02;99959.56;;;10.27;100.00
24486;BME280;13449;49.374;8.584;2023-03-25T07:18:29;99957.28;;;10.46;100.00
24486;BME280;13449;49.374;8.584;2023-03-25T07:20:56;99947.53;;;10.61;100.00
24486;BME280;13449;49.374;8.584;2023-03-25T07:23:22;99951.56;;;10.85;100.00
24486;BME280;13449;49.374;8.584;2023-03-25T07:25:51;99951.56;;;10.85;100.00
24486;BME280;13449;49.374;8.584;2023-03-25T07:28:18;99937.13;;;11.03;100.00
24486;BME280;13449;49.374;8.584;2023-03-25T07:30:45;99941.44;;;11.38;100.00
24486;BME280;13449;49.374;8.584;2023-03-25T07:33:11;99931.19;;;11.22;100.00
24486;BME280;13449;49.374;8.584;2023-03-25T07:35:37;99932.38;;;11.48;100.00
24486;BME280;13449;49.374;8.584;2023-03-25T07:38:04;99928.31;;;11.52;100.00
24486;BME280;13449;49.374;8.584;2023-03-25T07:40:36;99919.78;;;11.50;100.00
24486;BME280;13449;49.374;8.584;2023-03-25T07:43:03;99919.22;;;11.54;100.00
24486;BME280;13449;49.374;8.584;2023-03-25T07:45:30;99919.09;;;11.76;100.00
24486;BME280;13449;49.374;8.584;2023-03-25T07:48:09;99920.47;;;11.65;100.00
24486;BME280;13449;49.374;8.584;2023-03-25T07:50:39;99919.19;;;11.89;100.00
24486;BME280;13449;49.374;8.584;2023-03-25T07:53:07;99922.72;;;12.09;100.00
24486;BME280;13449;49.374;8.584;2023-03-25T07:55:34;99925.44;;;12.43;100.00
24486;BME280;13449;49.374;8.584;2023-03-25T07:58:00;99916.91;;;12.54;100.00
24486;BME280;13449;49.374;8.584;2023-03-25T08:00:28;99924.00;;;12.53;100.00
24486;BME280;13449;49.374;8.584;2023-03-25T08:02:55;99922.41;;;12.72;100.00
24486;BME280;13449;49.374;8.584;2023-03-25T08:05:22;99922.53;;;12.18;100.00
24486;BME280;13449;49.374;8.584;2023-03-25T08:07:52;99930.34;;;11.84;100.00
24486;BME280;13449;49.374;8.584;2023-03-25T08:10:18;99942.16;;;11.95;100.00
24486;BME280;13449;49.374;8.584;2023-03-25T08:12:45;99931.16;;;11.91;100.00
24486;BME280;13449;49.374;8.584;2023-03-25T08:15:14;99931.22;;;12.05;100.00
24486;BME280;13449;49.374;8.584;2023-03-25T08:17:43;99928.69;;;11.83;100.00
24486;BME280;13449;49.374;8.584;2023-03-25T08:20:10;99930.47;;;11.76;100.00
24486;BME280;13449;49.374;8.584;2023-03-25T08:22:40;99934.09;;;12.10;100.00
24486;BME280;13449;49.374;8.584;2023-03-25T08:25:09;99934.69;;;12.12;100.00
24486;BME280;13449;49.374;8.584;2023-03-25T08:27:36;99938.16;;;12.06;100.00
24486;BME280;13449;49.374;8.584;2023-03-25T08:30:03;99941.84;;;12.31;100.00
24486;BME280;13449;49.374;8.584;2023-03-25T08:32:30;99949.44;;;11.86;100.00
24486;BME280;13449;49.374;8.584;2023-03-25T08:34:57;99945.84;;;11.66;100.00
24486;BME280;13449;49.374;8.584;2023-03-25T08:37:26;99949.94;;;11.40;100.00
24486;BME280;13449;49.374;8.584;2023-03-25T08:39:55;99963.78;;;11.42;100.00
24486;BME280;13449;49.374;8.584;2023-03-25T08:42:23;99955.06;;;11.83;100.00
24486;BME280;13449;49.374;8.584;2023-03-25T08:44:49;99965.78;;;11.40;100.00
24486;BME280;13449;49.374;8.584;2023-03-25T08:47:16;99961.78;;;10.95;100.00
24486;BME280;13449;49.374;8.584;2023-03-25T08:49:42;99971.53;;;10.94;100.00
24486;BME280;13449;49.374;8.584;2023-03-25T08:52:11;99959.47;;;10.85;100.00
24486;BME280;13449;49.374;8.584;2023-03-25T08:54:37;99964.47;;;11.02;100.00
24486;BME280;13449;49.374;8.584;2023-03-25T08:57:04;99970.66;;;11.09;100.00
24486;BME280;13449;49.374;8.584;2023-03-25T08:59:33;99971.69;;;11.14;100.00
24486;BME280;13449;49.374;8.584;2023-03-25T09:01:59;99963.25;;;11.26;100.00
24486;BME280;13449;49.374;8.584;2023-03-25T09:04:27;99962.50;;;11.32;100.00
24486;BME280;13449;49.374;8.584;2023-03-25T09:06:53;99965.97;;;11.39;100.00
24486;BME280;13449;49.374;8.584;2023-03-25T09:09:39;99949.94;;;11.40;100.00
24486;BME280;13449;49.374;8.584;2023-03-25T09:12:06;99955.75;;;11.57;100.00
24486;BME280;13449;49.374;8.584;2023-03-25T09:14:33;99960.75;;;11.80;100.00
24486;BME280;13449;49.374;8.584;2023-03-25T09:16:59;99956.88;;;11.83;100.00
24486;BME280;13449;49.374;8.584;2023-03-25T09:19:27;99946.47;;;11.68;100.00
24486;BME280;13449;49.374;8.584;2023-03-25T09:21:53;99952.81;;;11.80;100.00
24486;BME280;13449;49.374;8.584;2023-03-25T09:24:20;99941.97;;;11.62;100.00
24486;BME280;13449;49.374;8.584;2023-03-25T09:26:48;99959.00;;;11.59;100.00
24486;BME280;13449;49.374;8.584;2023-03-25T09:29:15;99949.25;;;11.60;100.00
24486;BME280;13449;49.374;8.584;2023-03-25T09:31:41;99962.06;;;11.28;100.00
24486;BME280;13449;49.374;8.584;2023-03-25T09:34:10;99956.16;;;11.26;100.00
24486;BME280;13449;49.374;8.584;2023-03-25T09:36:41;99948.41;;;11.53;100.00
24486;BME280;13449;49.374;8.584;2023-03-25T09:39:07;99944.41;;;11.29;100.00
24486;BME280;13449;49.374;8.584;2023-03-25T09:41:56;99938.09;;;11.23;100.00
24486;BME280;13449;49.374;8.584;2023-03-25T09:44:32;99928.78;;;11.62;100.00
24486;BME280;13449;49.374;8.584;2023-03-25T09:47:02;99929.59;;;11.62;100.00
24486;BME280;13449;49.374;8.584;2023-03-25T09:49:41;99940.97;;;12.11;100.00
24486;BME280;13449;49.374;8.584;2023-03-25T09:52:14;99936.34;;;12.20;100.00
24486;BME280;13449;49.374;8.584;2023-03-25T09:54:48;99943.22;;;12.07;100.00
24486;BME280;13449;49.374;8.584;2023-03-25T09:57:20;99937.72;;;12.09;100.00
24486;BME280;13449;49.374;8.584;2023-03-25T09:59:49;99943.06;;;12.22;100.00
24486;BME280;13449;49.374;8.584;2023-03-25T10:08:26;99933.03;;;11.63;100.00
24486;BME280;13449;49.374;8.584;2023-03-25T10:13:49;99925.22;;;11.83;100.00
24486;BME280;13449;49.374;8.584;2023-03-25T10:22:16;99917.50;;;11.40;100.00
24486;BME280;13449;49.374;8.584;2023-03-25T10:24:48;99931.31;;;11.42;100.00
24486;BME280;13449;49.374;8.584;2023-03-25T10:27:44;99931.63;;;11.26;100.00
24486;BME280;13449;49.374;8.584;2023-03-25T10:32:49;99923.56;;;11.75;100.00
24486;BME280;13449;49.374;8.584;2023-03-25T10:35:24;99939.13;;;12.05;100.00
24486;BME280;13449;49.374;8.584;2023-03-25T10:37:57;99939.22;;;11.77;100.00
24486;BME280;13449;49.374;8.584;2023-03-25T10:40:35;99934.81;;;11.90;100.00
24486;BME280;13449;49.374;8.584;2023-03-25T10:45:51;99931.44;;;12.03;100.00
24486;BME280;13449;49.374;8.584;2023-03-25T10:48:25;99931.00;;;12.00;100.00
24486;BME280;13449;49.374;8.584;2023-03-25T10:53:32;99898.28;;;11.87;100.00
24486;BME280;13449;49.374;8.584;2023-03-25T10:56:03;99894.94;;;11.79;100.00
24486;BME280;13449;49.374;8.584;2023-03-25T10:58:30;99906.50;;;11.71;100.00
24486;BME280;13449;49.374;8.584;2023-03-25T11:01:02;99904.19;;;11.55;100.00
24486;BME280;13449;49.374;8.584;2023-03-25T11:03:38;99905.31;;;11.39;100.00
24486;BME280;13449;49.374;8.584;2023-03-25T11:06:06;99904.75;;;11.50;100.00
24486;BME280;13449;49.374;8.584;2023-03-25T11:08:35;99916.31;;;11.42;100.00
24486;BME280;13449;49.374;8.584;2023-03-25T11:11:03;99913.16;;;10.69;100.00
24486;BME280;13449;49.374;8.584;2023-03-25T11:13:33;99911.97;;;10.50;100.00
24486;BME280;13449;49.374;8.584;2023-03-25T11:16:01;99915.03;;;10.33;100.00
24486;BME280;13449;49.374;8.584;2023-03-25T11:18:33;99917.66;;;10.33;100.00
24486;BME280;13449;49.374;8.584;2023-03-25T11:21:03;99926.13;;;10.28;100.00
24486;BME280;13449;49.374;8.584;2023-03-25T11:23:45;99925.41;;;10.34;100.00
24486;BME280;13449;49.374;8.584;2023-03-25T11:26:24;99925.69;;;10.46;100.00
24486;BME280;13449;49.374;8.584;2023-03-25T11:28:54;99924.25;;;10.65;100.00
24486;BME280;13449;49.374;8.584;2023-03-25T11:31:24;99919.69;;;10.73;100.00
24486;BME280;13449;49.374;8.584;2023-03-25T11:36:34;99919.72;;;10.59;100.00
24486;BME280;13449;49.374;8.584;2023-03-25T11:39:17;99947.25;;;10.56;100.00
24486;BME280;13449;49.374;8.584;2023-03-25T11:41:44;99957.50;;;9.93;100.00
24486;BME280;13449;49.374;8.584;2023-03-25T11:44:24;99983.78;;;9.49;100.00
24486;BME280;13449;49.374;8.584;2023-03-25T11:46:56;99989.31;;;9.39;100.00
24486;BME280;13449;49.374;8.584;2023-03-25T11:49:24;99990.63;;;9.05;100.00
24486;BME280;13449;49.374;8.584;2023-03-25T11:52:07;99972.88;;;9.07;100.00
24486;BME280;13449;49.374;8.584;2023-03-25T11:54:35;99967.22;;;8.96;100.00
24486;BME280;13449;49.374;8.584;2023-03-25T11:57:05;99972.88;;;9.07;100.00
24486;BME280;13449;49.374;8.584;2023-03-25T11:59:36;99966.56;;;9.31;100.00
24486;BME280;13449;49.374;8.584;2023-03-25T12:05:02;99956.97;;;9.83;100.00
24486;BME280;13449;49.374;8.584;2023-03-25T12:07:48;99947.81;;;9.79;100.00
24486;BME280;13449;49.374;8.584;2023-03-25T12:10:17;99945.44;;;10.20;100.00
24486;BME280;13449;49.374;8.584;2023-03-25T12:13:06;99942.34;;;10.46;100.00
24486;BME280;13449;49.374;8.584;2023-03-25T12:15:50;99944.78;;;10.69;100.00
24486;BME280;13449;49.374;8.584;2023-03-25T12:21:29;99949.94;;;11.06;100.00
24486;BME280;13449;49.374;8.584;2023-03-25T12:26:57;99948.28;;;11.33;100.00
24486;BME280;13449;49.374;8.584;2023-03-25T12:32:46;99931.31;;;11.83;100.00
24486;BME280;13449;49.374;8.584;2023-03-25T12:35:27;99924.84;;;11.86;100.00
24486;BME280;13449;49.374;8.584;2023-03-25T12:38:20;99928.78;;;11.62;100.00
24486;BME280;13449;49.374;8.584;2023-03-25T12:41:19;99930.25;;;11.71;100.00
24486;BME280;13449;49.374;8.584;2023-03-25T12:49:10;99923.16;;;11.78;100.00
24486;BME280;13449;49.374;8.584;2023-03-25T13:02:48;99902.88;;;12.80;100.00
24486;BME280;13449;49.374;8.584;2023-03-25T13:05:35;99905.09;;;12.96;100.00
24486;BME280;13449;49.374;8.584;2023-03-25T13:08:13;99901.25;;;12.79;100.00
24486;BME280;13449;49.374;8.584;2023-03-25T13:10:47;99906.13;;;12.55;100.00
24486;BME280;13449;49.374;8.584;2023-03-25T13:13:18;99900.84;;;12.82;100.00
24486;BME280;13449;49.374;8.584;2023-03-25T13:15:49;99901.66;;;12.69;100.00
24486;BME280;13449;49.374;8.584;2023-03-25T13:18:20;99894.75;;;12.75;100.00
24486;BME280;13449;49.374;8.584;2023-03-25T13:20:59;99881.97;;;12.72;100.00
24486;BME280;13449;49.374;8.584;2023-03-25T13:23:35;99883.75;;;13.11;100.00
24486;BME280;13449;49.374;8.584;2023-03-25T13:26:16;99873.56;;;13.08;100.00
24486;BME280;13449;49.374;8.584;2023-03-25T13:28:47;99884.38;;;13.06;100.00
24486;BME280;13449;49.374;8.584;2023-03-25T13:31:22;99867.25;;;13.16;100.00
24486;BME280;13449;49.374;8.584;2023-03-25T13:34:00;99859.56;;;13.01;100.00
24486;BME280;13449;49.374;8.584;2023-03-25T13:36:33;99864.88;;;12.88;100.00
24486;BME280;13449;49.374;8.584;2023-03-25T13:44:21;99853.91;;;13.62;100.00
24486;BME280;13449;49.374;8.584;2023-03-25T13:46:53;99862.50;;;13.51;100.00
24486;BME280;13449;49.374;8.584;2023-03-25T13:49:27;99867.84;;;13.31;100.00
24486;BME280;13449;49.374;8.584;2023-03-25T13:51:55;99859.94;;;13.18;100.00
24486;BME280;13449;49.374;8.584;2023-03-25T13:54:29;99865.00;;;13.13;100.00
24486;BME280;13449;49.374;8.584;2023-03-25T14:13:43;99863.78;;;13.80;97.20
24486;BME280;13449;49.374;8.584;2023-03-25T14:16:13;99870.94;;;13.79;95.38
24486;BME280;13449;49.374;8.584;2023-03-25T14:18:43;99861.00;;;13.75;100.00
24486;BME280;13449;49.374;8.584;2023-03-25T14:23:48;99879.63;;;13.35;100.00
24486;BME280;13449;49.374;8.584;2023-03-25T14:26:16;99877.38;;;13.52;100.00
24486;BME280;13449;49.374;8.584;2023-03-25T14:28:45;99875.13;;;13.49;100.00
24486;BME280;13449;49.374;8.584;2023-03-25T14:39:56;99868.19;;;13.48;100.00
24486;BME280;13449;49.374;8.584;2023-03-25T14:42:07;99873.28;;;13.56;100.00
24486;BME280;13449;49.374;8.584;2023-03-25T14:44:42;99865.00;;;13.39;100.00
24486;BME280;13449;49.374;8.584;2023-03-25T14:50:28;99874.53;;;13.47;100.00
24486;BME280;13449;49.374;8.584;2023-03-25T14:53:01;99872.91;;;13.46;100.00
24486;BME280;13449;49.374;8.584;2023-03-25T14:55:39;99877.97;;;13.54;100.00
24486;BME280;13449;49.374;8.584;2023-03-25T14:58:17;99886.50;;;13.56;100.00
24486;BME280;13449;49.374;8.584;2023-03-25T15:00:59;99871.25;;;13.51;100.00
24486;BME280;13449;49.374;8.584;2023-03-25T15:03:33;99869.84;;;13.49;100.00
24486;BME280;13449;49.374;8.584;2023-03-25T15:06:01;99877.78;;;13.49;98.74
24486;BME280;13449;49.374;8.584;2023-03-25T15:08:40;99871.06;;;13.53;97.58
24486;BME280;13449;49.374;8.584;2023-03-25T15:11:15;99872.81;;;13.72;100.00
24486;BME280;13449;49.374;8.584;2023-03-25T15:13:46;99872.09;;;13.90;96.88
24486;BME280;13449;49.374;8.584;2023-03-25T15:16:21;99872.19;;;13.70;91.06
24486;BME280;13449;49.374;8.584;2023-03-25T15:21:24;99874.19;;;13.82;91.17
24486;BME280;13449;49.374;8.584;2023-03-25T15:24:03;99880.31;;;13.75;94.63
24486;BME280;13449;49.374;8.584;2023-03-25T15:26:35;99883.22;;;13.61;96.58
24486;BME280;13449;49.374;8.584;2023-03-25T15:32:00;99886.63;;;13.74;97.46
24486;BME280;13449;49.374;8.584;2023-03-25T15:43:34;99887.94;;;13.45;96.23